Terminal Aerodrome Forecast
Issued by NWS

Home | Current Version | Previous Version | Graphics & Text | Print | Product List | Glossary On
Versions: 1 2 3 4 5 6 7 8 9 10 11 12 13 14 15
258
FTUS43 KABR 180523
TAFPIR
TAF
KPIR 180523Z 1806/1906 VRB05KT P6SM SCT250
     FM181800 14009KT P6SM BKN250
     FM190400 14011KT P6SM BKN250 WS020/19035KT=

USA.gov is the U.S. government's official web portal to all federal, state and local government web resources and services.